Sortavala, Russia
Current Conditions -  °F | °C
As of 2:20 AM on Sunday 23 Nov 2014 (Local Time) from EFSA Reporting Station
Haze Haze  
Wind Chill: 32°   Ceiling: 200
Heat Index: 32°   Visibility: 1.3mi
Dew Point: 32°   Wind: 2mph
Humidity: 100%   Direction: 80°E
Pressure: 30.36"   Gusts: NA
Location:  61.7°N, 30.68°E
Report Text: EFSA 222320Z AUTO 08002KT 2200 BR BKN002 OVC022 M00/M00 Q1028
Loading
Personal Weather Stations






























Interactive Weather Map New forecast layout! Learn more

10-Day Weather Forecast

Advertisements
Track Severe Weather on mobile